createdAt,value
2018-09-23T00:01:25.527Z,12.40
2018-09-23T00:06:28.518Z,12.50
2018-09-23T00:11:31.526Z,12.50
2018-09-23T00:16:34.514Z,12.40
2018-09-23T00:21:37.611Z,12.40
2018-09-23T00:26:40.644Z,12.50
2018-09-23T00:31:43.616Z,12.40
2018-09-23T00:36:46.588Z,12.40
2018-09-23T00:41:49.979Z,12.40
2018-09-23T00:46:53.765Z,12.30
2018-09-23T00:51:56.749Z,12.10
2018-09-23T00:56:59.803Z,12.10
2018-09-23T01:02:04.019Z,12.10
2018-09-23T01:07:07.069Z,12.10
2018-09-23T01:12:10.028Z,12.00
2018-09-23T01:17:12.968Z,12.00
2018-09-23T01:22:15.952Z,12.00
2018-09-23T01:27:18.999Z,11.90
2018-09-23T01:32:22.056Z,12.00
2018-09-23T01:37:25.099Z,11.80
2018-09-23T01:42:28.054Z,11.90
2018-09-23T01:47:31.037Z,11.90
2018-09-23T01:52:34.031Z,11.90
2018-09-23T01:57:36.987Z,11.90
2018-09-23T02:02:39.974Z,11.90
2018-09-23T02:07:42.930Z,11.90
2018-09-23T02:12:45.920Z,11.90
2018-09-23T02:17:49.014Z,11.90
2018-09-23T02:22:51.965Z,11.80
2018-09-23T02:27:54.894Z,11.70
2018-09-23T02:32:57.788Z,11.80
2018-09-23T02:38:02.697Z,11.90
2018-09-23T02:43:05.827Z,11.90
2018-09-23T02:48:08.735Z,11.90
2018-09-23T02:53:11.858Z,12.00
2018-09-23T02:58:15.754Z,12.10
2018-09-23T03:03:18.687Z,12.10
2018-09-23T03:08:21.611Z,12.20
2018-09-23T03:13:24.656Z,12.20
2018-09-23T03:18:27.601Z,12.20
2018-09-23T03:23:30.557Z,12.30
2018-09-23T03:28:33.495Z,12.30
2018-09-23T03:33:36.413Z,12.30
2018-09-23T03:38:39.424Z,12.30
2018-09-23T03:43:42.333Z,12.20
2018-09-23T03:48:45.267Z,12.30
2018-09-23T03:53:48.188Z,12.30
2018-09-23T03:58:51.500Z,12.30
2018-09-23T04:03:54.432Z,12.30
2018-09-23T04:08:57.355Z,12.30
2018-09-23T04:14:00.236Z,12.20
2018-09-23T04:19:04.858Z,12.20
2018-09-23T04:24:07.777Z,12.20
2018-09-23T04:29:10.693Z,12.20
2018-09-23T04:34:13.651Z,12.30
2018-09-23T04:39:16.534Z,12.20
2018-09-23T04:44:19.438Z,12.20
2018-09-23T04:49:22.411Z,12.20
2018-09-23T04:54:25.327Z,12.20
2018-09-23T04:59:29.027Z,12.20
2018-09-23T05:04:31.983Z,12.20
2018-09-23T05:09:34.944Z,12.30
2018-09-23T05:14:37.831Z,12.30
2018-09-23T05:19:40.757Z,12.30
2018-09-23T05:24:43.711Z,12.30
2018-09-23T05:29:46.610Z,12.40
2018-09-23T05:34:49.565Z,12.30
2018-09-23T05:39:52.488Z,12.40
2018-09-23T05:44:55.607Z,12.40
2018-09-23T05:49:58.524Z,12.50
2018-09-23T05:55:03.589Z,12.60
2018-09-23T06:00:06.779Z,12.70
2018-09-23T06:05:09.707Z,12.90
2018-09-23T06:10:12.629Z,12.90
2018-09-23T06:15:15.526Z,13.00
2018-09-23T06:20:18.444Z,12.90
2018-09-23T06:25:21.496Z,13.00
2018-09-23T06:30:24.412Z,13.00
2018-09-23T06:35:27.311Z,13.20
2018-09-23T06:40:30.239Z,13.20
2018-09-23T06:45:33.239Z,13.30
2018-09-23T06:50:36.153Z,13.30
2018-09-23T06:55:39.074Z,13.30
2018-09-23T07:00:42.008Z,13.30
2018-09-23T07:05:45.009Z,13.50
2018-09-23T07:10:48.003Z,13.40
2018-09-23T07:15:50.897Z,13.50
2018-09-23T07:20:53.973Z,13.50
2018-09-23T07:25:57.179Z,13.50
2018-09-23T07:31:00.130Z,13.70
2018-09-23T07:36:04.763Z,13.70
2018-09-23T07:41:07.660Z,13.80
2018-09-23T07:46:10.592Z,14.10
2018-09-23T07:51:13.524Z,14.00
2018-09-23T07:56:17.034Z,14.10
2018-09-23T08:01:19.950Z,14.30
2018-09-23T08:06:22.865Z,14.20
2018-09-23T08:11:25.879Z,14.10
2018-09-23T08:16:29.359Z,14.10
2018-09-23T08:21:32.390Z,14.20
2018-09-23T08:26:35.711Z,14.30
2018-09-23T08:31:38.835Z,14.30
2018-09-23T08:36:41.853Z,14.40
2018-09-23T08:41:44.889Z,14.30
2018-09-23T08:46:47.951Z,14.10
2018-09-23T08:51:51.526Z,14.20
2018-09-23T08:56:54.593Z,14.30
2018-09-23T09:01:57.619Z,14.50
2018-09-23T09:07:02.620Z,14.70
2018-09-23T09:12:05.850Z,14.80
2018-09-23T09:17:08.769Z,14.90
2018-09-23T09:22:11.698Z,14.80
2018-09-23T09:27:14.813Z,14.70
2018-09-23T09:32:17.927Z,14.80
2018-09-23T09:37:20.948Z,14.70
2018-09-23T09:42:23.946Z,14.70
2018-09-23T09:47:26.973Z,14.90
2018-09-23T09:52:30.338Z,15.10
2018-09-23T09:57:33.265Z,15.00
2018-09-23T10:02:36.259Z,15.20
2018-09-23T10:07:39.218Z,15.20
2018-09-23T10:12:42.245Z,15.30
2018-09-23T10:17:45.612Z,15.40
2018-09-23T10:22:48.704Z,15.40
2018-09-23T10:27:51.813Z,15.60
2018-09-23T10:32:55.048Z,15.80
2018-09-23T10:37:58.002Z,16.00
2018-09-23T10:43:02.149Z,16.20
2018-09-23T10:48:05.266Z,16.40
2018-09-23T10:53:08.218Z,16.70
2018-09-23T10:58:11.206Z,17.00
2018-09-23T11:03:14.245Z,17.40
2018-09-23T11:08:17.215Z,17.60
2018-09-23T11:18:28.920Z,20.00
2018-09-23T11:23:31.894Z,20.50
2018-09-23T11:28:34.808Z,20.50
2018-09-23T11:33:37.732Z,20.70
2018-09-23T11:38:40.670Z,20.80
2018-09-23T11:43:43.672Z,20.90
2018-09-23T11:48:46.682Z,20.90
2018-09-23T11:53:49.659Z,20.50
2018-09-23T11:58:52.726Z,20.50
2018-09-23T12:03:55.996Z,20.50
2018-09-23T12:08:59.052Z,20.60
2018-09-23T12:14:04.171Z,20.50
2018-09-23T12:19:07.122Z,20.40
2018-09-23T12:24:10.127Z,20.40
2018-09-23T12:29:13.134Z,20.30
2018-09-23T12:34:16.225Z,20.40
2018-09-23T12:39:19.720Z,20.50
2018-09-23T12:44:22.807Z,20.50
2018-09-23T12:49:26.993Z,20.70
2018-09-23T12:54:30.138Z,21.10
2018-09-23T12:59:33.294Z,21.50
2018-09-23T13:04:36.417Z,21.40
2018-09-23T13:09:39.637Z,21.50
2018-09-23T13:14:42.705Z,21.50
2018-09-23T13:19:45.959Z,21.60
2018-09-23T13:24:49.285Z,21.70
2018-09-23T13:29:52.407Z,22.10
2018-09-23T13:34:55.521Z,21.90
2018-09-23T13:39:58.687Z,21.70
2018-09-23T13:45:03.304Z,21.70
2018-09-23T13:50:06.313Z,21.80
2018-09-23T13:55:10.005Z,21.90
2018-09-23T14:00:13.246Z,21.80
2018-09-23T14:05:16.231Z,21.80
2018-09-23T14:10:19.784Z,21.80
2018-09-23T14:15:22.842Z,21.60
2018-09-23T14:20:25.872Z,21.50
2018-09-23T14:25:28.996Z,21.20
2018-09-23T14:30:32.146Z,20.60
2018-09-23T14:35:35.161Z,20.10
2018-09-23T14:40:38.200Z,17.00
2018-09-23T14:45:41.351Z,15.90
2018-09-23T14:50:44.366Z,15.40
2018-09-23T14:55:47.386Z,15.40
2018-09-23T15:00:50.420Z,15.30
2018-09-23T15:05:53.520Z,15.40
2018-09-23T15:10:56.649Z,15.50
2018-09-23T15:15:59.722Z,15.60
2018-09-23T15:21:04.959Z,15.80
2018-09-23T15:26:09.027Z,16.10
2018-09-23T15:31:12.167Z,16.30
2018-09-23T15:36:15.372Z,16.10
2018-09-23T15:41:18.594Z,15.90
2018-09-23T15:46:21.669Z,15.80
2018-09-23T15:51:24.773Z,15.70
2018-09-23T15:56:27.883Z,15.60
2018-09-23T16:01:31.018Z,15.50
2018-09-23T16:06:34.279Z,15.30
2018-09-23T16:11:37.792Z,15.20
2018-09-23T16:16:40.797Z,15.10
2018-09-23T16:21:44.096Z,15.00
2018-09-23T16:26:47.264Z,14.80
2018-09-23T16:31:50.407Z,14.60
2018-09-23T16:36:53.475Z,14.40
2018-09-23T16:41:56.689Z,14.10
2018-09-23T16:46:59.754Z,14.00
2018-09-23T16:52:04.983Z,13.80
2018-09-23T16:57:08.121Z,13.70
2018-09-23T17:02:11.429Z,13.50
2018-09-23T17:07:14.524Z,13.40
2018-09-23T17:12:18.235Z,13.30
2018-09-23T17:17:21.391Z,13.30
2018-09-23T17:22:24.713Z,13.30
2018-09-23T17:27:27.873Z,13.20
2018-09-23T17:32:30.983Z,13.20
2018-09-23T17:37:34.066Z,13.10
2018-09-23T17:42:37.152Z,12.90
2018-09-23T17:47:40.280Z,12.70
2018-09-23T17:52:43.339Z,12.60
2018-09-23T17:57:46.516Z,12.50
2018-09-23T18:02:50.670Z,12.50
2018-09-23T18:07:53.817Z,12.50
2018-09-23T18:12:56.862Z,12.40
2018-09-23T18:18:00.033Z,12.40
2018-09-23T18:23:05.513Z,12.40
2018-09-23T18:28:08.759Z,12.20
2018-09-23T18:33:11.839Z,12.20
2018-09-23T18:38:14.905Z,12.10
2018-09-23T18:43:17.990Z,12.00
2018-09-23T18:48:21.345Z,11.90
2018-09-23T18:53:25.386Z,11.80
2018-09-23T18:58:28.523Z,11.70
2018-09-23T19:03:31.869Z,11.70
2018-09-23T19:08:35.093Z,11.60
2018-09-23T19:13:43.790Z,11.50
2018-09-23T19:18:46.887Z,11.50
2018-09-23T19:23:50.069Z,11.40
2018-09-23T19:28:53.352Z,11.40
2018-09-23T19:33:56.561Z,11.20
2018-09-23T19:38:59.647Z,11.30
2018-09-23T19:44:04.469Z,11.40
2018-09-23T19:49:07.587Z,11.30
2018-09-23T19:54:10.888Z,11.30
2018-09-23T19:59:13.919Z,11.10
2018-09-23T20:04:17.192Z,11.10
2018-09-23T20:09:20.256Z,11.00
2018-09-23T20:14:23.382Z,10.90
2018-09-23T20:19:26.507Z,10.90
2018-09-23T20:24:29.902Z,10.80
2018-09-23T20:29:33.080Z,10.70
2018-09-23T20:34:36.208Z,10.70
2018-09-23T20:39:40.112Z,10.70
2018-09-23T20:44:43.248Z,10.60
2018-09-23T20:49:46.379Z,10.50
2018-09-23T20:54:49.509Z,10.50
2018-09-23T20:59:52.696Z,10.40
2018-09-23T21:04:55.732Z,10.40
2018-09-23T21:09:58.744Z,10.40
2018-09-23T21:15:03.310Z,10.60
2018-09-23T21:20:06.779Z,10.50
2018-09-23T21:25:09.812Z,10.40
2018-09-23T21:30:12.793Z,10.40
2018-09-23T21:35:15.828Z,10.40
2018-09-23T21:40:18.847Z,10.40
2018-09-23T21:45:21.819Z,10.40
2018-09-23T21:50:24.958Z,10.40
2018-09-23T21:55:27.943Z,10.30
2018-09-23T22:00:36.789Z,10.30
2018-09-23T22:05:39.848Z,10.30
2018-09-23T22:10:42.876Z,10.20
2018-09-23T22:15:45.884Z,10.30
2018-09-23T22:20:49.052Z,10.30
2018-09-23T22:25:52.103Z,10.30
2018-09-23T22:30:55.120Z,10.30
2018-09-23T22:35:58.126Z,10.30
2018-09-23T22:41:04.262Z,10.40
2018-09-23T22:46:07.300Z,10.30
2018-09-23T22:51:10.407Z,10.40
2018-09-23T22:56:13.480Z,10.40
2018-09-23T23:01:16.487Z,10.40
2018-09-23T23:06:19.504Z,10.40
2018-09-23T23:11:23.024Z,10.40
2018-09-23T23:16:26.006Z,10.50
2018-09-23T23:21:28.980Z,10.40
2018-09-23T23:26:31.976Z,10.50
2018-09-23T23:31:35.039Z,10.50
2018-09-23T23:36:38.027Z,10.50
2018-09-23T23:41:41.054Z,10.50
2018-09-23T23:46:44.014Z,10.50
2018-09-23T23:51:46.995Z,10.50
2018-09-23T23:56:50.060Z,10.50
